createdAt,value
2023-04-12T00:01:55.203Z,2.97
2023-04-12T00:04:22.824Z,4.68
2023-04-12T00:06:49.324Z,2.67
2023-04-12T00:09:18.808Z,3.08
2023-04-12T00:11:45.118Z,3.55
2023-04-12T00:14:11.633Z,2.45
2023-04-12T00:16:38.983Z,5.97
2023-04-12T00:19:06.412Z,3.15
2023-04-12T00:21:32.882Z,1.98
2023-04-12T00:23:59.674Z,4.22
2023-04-12T00:26:26.241Z,2.90
2023-04-12T00:28:52.613Z,3.10
2023-04-12T00:31:19.050Z,3.10
2023-04-12T00:33:46.087Z,2.50
2023-04-12T00:36:12.423Z,2.85
2023-04-12T00:38:38.805Z,3.05
2023-04-12T00:41:05.404Z,1.52
2023-04-12T00:43:31.704Z,2.47
2023-04-12T00:45:58.452Z,4.10
2023-04-12T00:48:26.321Z,2.92
2023-04-12T00:50:55.448Z,4.32
2023-04-12T00:53:22.746Z,3.80
2023-04-12T00:55:50.082Z,2.30
2023-04-12T00:58:16.768Z,3.38
2023-04-12T01:00:50.520Z,2.13
2023-04-12T01:03:22.865Z,2.95
2023-04-12T01:06:04.868Z,2.08
2023-04-12T01:08:38.730Z,1.92
2023-04-12T01:11:18.870Z,3.65
2023-04-12T01:13:49.010Z,2.50
2023-04-12T01:16:22.206Z,2.88
2023-04-12T01:18:51.443Z,5.18
2023-04-12T01:21:42.320Z,4.10
2023-04-12T01:24:19.640Z,3.58
2023-04-12T01:26:47.418Z,8.38
2023-04-12T01:29:18.015Z,3.53
2023-04-12T01:31:50.514Z,2.50
2023-04-12T01:34:17.571Z,2.53
2023-04-12T01:36:44.907Z,2.63
2023-04-12T01:39:11.355Z,3.00
2023-04-12T01:41:39.346Z,1.88
2023-04-12T01:44:05.778Z,2.28
2023-04-12T01:46:32.616Z,4.20
2023-04-12T01:48:59.031Z,1.75
2023-04-12T01:51:34.384Z,2.53
2023-04-12T01:54:04.200Z,2.20
2023-04-12T01:56:31.707Z,2.83
2023-04-12T01:58:59.142Z,2.13
2023-04-12T02:01:25.852Z,3.25
2023-04-12T02:03:52.760Z,2.67
2023-04-12T02:06:20.763Z,5.25
2023-04-12T02:08:47.954Z,3.08
2023-04-12T02:11:17.326Z,4.35
2023-04-12T02:13:43.751Z,3.63
2023-04-12T02:16:11.013Z,5.28
2023-04-12T02:18:37.506Z,4.70
2023-04-12T02:21:03.856Z,3.65
2023-04-12T02:23:30.179Z,5.72
2023-04-12T02:25:56.461Z,4.00
2023-04-12T02:28:23.184Z,6.45
2023-04-12T02:30:53.563Z,2.65
2023-04-12T02:33:25.427Z,2.88
2023-04-12T02:35:52.361Z,2.47
2023-04-12T02:38:19.138Z,1.85
2023-04-12T02:40:45.495Z,4.65
2023-04-12T02:43:11.893Z,2.88
2023-04-12T02:45:38.231Z,4.25
2023-04-12T02:48:05.404Z,2.20
2023-04-12T02:50:31.806Z,2.40
2023-04-12T02:52:58.121Z,4.18
2023-04-12T02:55:25.721Z,4.10
2023-04-12T02:57:52.129Z,3.85
2023-04-12T03:00:18.496Z,6.10
2023-04-12T03:02:44.986Z,3.97
2023-04-12T03:05:12.242Z,3.60
2023-04-12T03:07:38.713Z,3.15
2023-04-12T03:10:08.648Z,2.08
2023-04-12T03:12:34.971Z,4.38
2023-04-12T03:15:01.326Z,3.67
2023-04-12T03:17:27.734Z,4.55
2023-04-12T03:19:54.171Z,5.32
2023-04-12T03:22:20.570Z,2.05
2023-04-12T03:24:47.010Z,5.90
2023-04-12T03:27:13.443Z,4.18
2023-04-12T03:29:39.802Z,4.57
2023-04-12T03:32:06.534Z,3.55
2023-04-12T03:34:32.846Z,2.30
2023-04-12T03:37:00.461Z,4.28
2023-04-12T03:39:26.950Z,4.75
2023-04-12T03:41:53.404Z,2.20
2023-04-12T03:44:19.770Z,2.65
2023-04-12T03:46:46.256Z,3.05
2023-04-12T03:49:12.762Z,2.90
2023-04-12T03:51:42.827Z,4.85
2023-04-12T03:54:10.241Z,1.80
2023-04-12T03:56:36.643Z,2.53
2023-04-12T03:59:03.055Z,1.55
2023-04-12T04:01:29.370Z,2.08
2023-04-12T04:03:56.241Z,5.72
2023-04-12T04:06:22.975Z,5.53
2023-04-12T04:08:49.369Z,3.28
2023-04-12T04:11:16.359Z,3.30
2023-04-12T04:13:42.758Z,3.58
2023-04-12T04:16:10.968Z,3.20
2023-04-12T04:18:37.402Z,2.00
2023-04-12T04:21:03.879Z,1.95
2023-04-12T04:23:38.821Z,2.45
2023-04-12T04:26:11.145Z,1.50
2023-04-12T04:28:45.537Z,1.60
2023-04-12T04:31:12.376Z,2.40
2023-04-12T04:33:39.076Z,2.00
2023-04-12T04:36:06.241Z,2.85
2023-04-12T04:38:35.647Z,0.90
2023-04-12T04:41:05.219Z,2.95
2023-04-12T04:43:31.809Z,1.40
2023-04-12T04:45:58.263Z,1.42
2023-04-12T04:48:24.850Z,1.45
2023-04-12T04:50:54.334Z,1.17
2023-04-12T04:53:22.418Z,2.83
2023-04-12T04:55:48.901Z,1.10
2023-04-12T04:58:16.145Z,2.80
2023-04-12T05:00:44.905Z,0.75
2023-04-12T05:03:12.004Z,1.83
2023-04-12T05:05:38.484Z,0.98
2023-04-12T05:08:05.003Z,1.42
2023-04-12T05:10:31.383Z,1.25
2023-04-12T05:12:57.753Z,0.85
2023-04-12T05:15:24.413Z,3.17
2023-04-12T05:17:51.061Z,2.30
2023-04-12T05:20:18.426Z,2.75
2023-04-12T05:22:44.791Z,3.20
2023-04-12T05:25:11.239Z,1.63
2023-04-12T05:27:37.555Z,1.83
2023-04-12T05:30:04.093Z,1.33
2023-04-12T05:32:31.129Z,1.52
2023-04-12T05:34:57.639Z,2.08
2023-04-12T05:37:23.968Z,2.83
2023-04-12T05:39:50.527Z,1.65
2023-04-12T05:42:16.890Z,1.88
2023-04-12T05:44:44.846Z,1.75
2023-04-12T05:47:11.242Z,1.95
2023-04-12T05:49:37.647Z,1.20
2023-04-12T05:52:05.659Z,1.55
2023-04-12T05:54:32.073Z,2.28
2023-04-12T05:56:58.454Z,2.28
2023-04-12T05:59:24.841Z,1.50
2023-04-12T06:01:51.558Z,1.88
2023-04-12T06:04:18.085Z,1.48
2023-04-12T06:06:44.567Z,1.17
2023-04-12T06:09:11.154Z,1.73
2023-04-12T06:11:39.133Z,1.70
2023-04-12T06:14:06.210Z,3.25
2023-04-12T06:16:32.721Z,2.70
2023-04-12T06:18:59.420Z,1.33
2023-04-12T06:21:26.733Z,1.25
2023-04-12T06:23:53.127Z,2.72
2023-04-12T06:26:19.520Z,2.67
2023-04-12T06:28:45.862Z,1.42
2023-04-12T06:31:12.303Z,2.50
2023-04-12T06:33:38.684Z,1.15
2023-04-12T06:36:05.442Z,2.22
2023-04-12T06:38:31.742Z,1.98
2023-04-12T06:40:58.067Z,0.82
2023-04-12T06:43:24.423Z,1.00
2023-04-12T06:45:50.844Z,1.58
2023-04-12T06:48:17.685Z,1.33
2023-04-12T06:50:46.781Z,1.65
2023-04-12T06:53:16.192Z,1.20
2023-04-12T06:55:42.536Z,1.52
2023-04-12T06:58:09.071Z,2.13
2023-04-12T07:00:35.673Z,1.35
2023-04-12T07:03:02.217Z,1.83
2023-04-12T07:05:28.902Z,1.45
2023-04-12T07:07:55.462Z,2.65
2023-04-12T07:10:21.802Z,1.35
2023-04-12T07:12:48.151Z,1.88
2023-04-12T07:15:14.611Z,1.20
2023-04-12T07:17:41.111Z,1.20
2023-04-12T07:20:07.934Z,1.05
2023-04-12T07:22:34.331Z,3.20
2023-04-12T07:25:00.875Z,1.20
2023-04-12T07:27:27.226Z,1.23
2023-04-12T07:29:54.600Z,2.20
2023-04-12T07:32:21.366Z,1.23
2023-04-12T07:34:47.841Z,1.30
2023-04-12T07:37:14.251Z,2.67
2023-04-12T07:39:40.986Z,0.93
2023-04-12T07:42:07.512Z,0.80
2023-04-12T07:44:35.615Z,1.00
2023-04-12T07:47:03.507Z,1.00
2023-04-12T07:49:29.815Z,0.70
2023-04-12T07:51:57.355Z,1.10
2023-04-12T07:54:26.841Z,0.70
2023-04-12T07:56:59.826Z,1.27
2023-04-12T07:59:26.295Z,1.00
2023-04-12T08:01:52.959Z,1.75
2023-04-12T08:04:19.423Z,2.25
2023-04-12T08:06:45.814Z,0.95
2023-04-12T08:09:12.210Z,0.73
2023-04-12T08:11:38.529Z,1.55
2023-04-12T08:14:04.912Z,1.60
2023-04-12T08:16:32.538Z,1.10
2023-04-12T08:18:58.949Z,0.90
2023-04-12T08:21:25.431Z,1.73
2023-04-12T08:23:51.848Z,0.93
2023-04-12T08:26:18.138Z,0.63
2023-04-12T08:28:44.986Z,1.80
2023-04-12T08:31:11.701Z,1.05
2023-04-12T08:33:38.107Z,1.45
2023-04-12T08:36:04.614Z,1.27
2023-04-12T08:38:44.845Z,1.35
2023-04-12T08:41:13.171Z,1.85
2023-04-12T08:43:43.069Z,2.80
2023-04-12T08:46:09.582Z,1.40
2023-04-12T08:48:36.714Z,2.13
2023-04-12T08:51:03.398Z,1.10
2023-04-12T08:53:29.756Z,1.75
2023-04-12T08:55:56.109Z,2.08
2023-04-12T08:58:22.628Z,2.55
2023-04-12T09:00:48.950Z,1.40
2023-04-12T09:03:15.672Z,1.60
2023-04-12T09:05:42.239Z,2.00
2023-04-12T09:08:08.546Z,1.77
2023-04-12T09:10:36.993Z,2.22
2023-04-12T09:13:04.020Z,1.17
2023-04-12T09:15:30.786Z,1.63
2023-04-12T09:18:08.127Z,1.85
2023-04-12T09:20:35.038Z,1.98
2023-04-12T09:23:02.818Z,0.95
2023-04-12T09:25:36.183Z,1.10
2023-04-12T09:28:02.616Z,1.40
2023-04-12T09:30:28.911Z,3.97
2023-04-12T09:32:55.819Z,2.03
2023-04-12T09:35:35.378Z,2.63
2023-04-12T09:38:08.712Z,3.45
2023-04-12T09:40:36.391Z,1.50
2023-04-12T09:43:03.787Z,2.72
2023-04-12T09:45:32.658Z,0.95
2023-04-12T09:47:59.691Z,0.80
2023-04-12T09:50:29.793Z,0.70
2023-04-12T09:52:57.042Z,0.95
2023-04-12T09:55:25.250Z,1.10
2023-04-12T09:57:52.515Z,0.60
2023-04-12T10:00:20.102Z,0.93
2023-04-12T10:02:48.266Z,0.90
2023-04-12T10:05:18.860Z,1.08
2023-04-12T10:07:45.973Z,1.70
2023-04-12T10:10:13.106Z,1.75
2023-04-12T10:12:41.022Z,1.77
2023-04-12T10:15:12.876Z,2.10
2023-04-12T10:17:42.145Z,1.10
2023-04-12T10:20:09.324Z,0.70
2023-04-12T10:22:36.183Z,1.17
2023-04-12T10:25:02.629Z,1.05
2023-04-12T10:27:28.998Z,1.10
2023-04-12T10:30:15.418Z,0.90
2023-04-12T10:32:42.339Z,1.15
2023-04-12T10:35:09.217Z,1.05
2023-04-12T10:37:54.600Z,0.95
2023-04-12T10:40:21.061Z,0.80
2023-04-12T10:42:47.360Z,0.80
2023-04-12T10:45:31.992Z,0.93
2023-04-12T10:48:00.374Z,0.93
2023-04-12T10:50:31.180Z,0.80
2023-04-12T10:53:13.010Z,1.13
2023-04-12T10:55:39.774Z,0.80
2023-04-12T10:58:06.367Z,1.27
2023-04-12T11:01:05.525Z,1.30
2023-04-12T11:03:32.105Z,0.80
2023-04-12T11:06:06.478Z,1.23
2023-04-12T11:08:41.023Z,1.60
2023-04-12T11:11:18.309Z,0.95
2023-04-12T11:13:44.649Z,1.65
2023-04-12T11:16:15.447Z,1.60
2023-04-12T11:18:42.014Z,1.10
2023-04-12T11:21:09.968Z,1.30
2023-04-12T11:23:37.772Z,2.50
2023-04-12T11:26:04.527Z,1.70
2023-04-12T11:28:33.112Z,1.13
2023-04-12T11:31:01.188Z,1.58
2023-04-12T11:33:35.168Z,1.10
2023-04-12T11:36:08.985Z,1.23
2023-04-12T11:38:36.118Z,1.20
2023-04-12T11:41:02.607Z,1.23
2023-04-12T11:43:29.417Z,1.38
2023-04-12T11:45:57.040Z,1.05
2023-04-12T11:48:23.375Z,0.93
2023-04-12T11:50:59.952Z,0.85
2023-04-12T11:53:34.566Z,0.82
2023-04-12T11:56:00.919Z,0.90
2023-04-12T11:58:27.949Z,1.92
2023-04-12T12:00:54.928Z,1.48
2023-04-12T12:03:21.831Z,1.38
2023-04-12T12:05:49.101Z,1.17
2023-04-12T12:08:15.998Z,0.73
2023-04-12T12:10:59.978Z,0.70
2023-04-12T12:13:43.431Z,0.90
2023-04-12T12:16:10.088Z,3.13
2023-04-12T12:18:39.893Z,3.03
2023-04-12T12:21:08.523Z,1.70
2023-04-12T12:23:35.534Z,1.48
2023-04-12T12:26:19.034Z,0.77
2023-04-12T12:28:49.324Z,0.57
2023-04-12T12:31:18.721Z,0.82
2023-04-12T12:33:47.332Z,0.75
2023-04-12T12:36:17.623Z,1.08
2023-04-12T12:38:44.106Z,0.50
2023-04-12T12:41:21.089Z,2.35
2023-04-12T12:43:48.400Z,1.13
2023-04-12T12:46:15.261Z,0.77
2023-04-12T12:48:42.208Z,0.88
2023-04-12T12:51:09.870Z,0.60
2023-04-12T12:53:36.990Z,0.40
2023-04-12T12:56:03.394Z,0.30
2023-04-12T12:58:30.192Z,0.30
2023-04-12T13:00:56.662Z,0.30
2023-04-12T13:03:23.245Z,0.30
2023-04-12T13:05:50.651Z,0.40
2023-04-12T13:08:17.559Z,0.52
2023-04-12T13:10:44.015Z,0.30
2023-04-12T13:13:10.429Z,0.40
2023-04-12T13:15:36.875Z,1.02
2023-04-12T13:18:03.354Z,0.77
2023-04-12T13:20:29.756Z,0.43
2023-04-12T13:22:57.208Z,0.40
2023-04-12T13:25:23.591Z,0.30
2023-04-12T13:27:50.888Z,0.40
2023-04-12T13:30:20.466Z,0.60
2023-04-12T13:32:47.001Z,0.65
2023-04-12T13:35:13.761Z,0.50
2023-04-12T13:37:40.323Z,1.30
2023-04-12T13:40:07.439Z,0.70
2023-04-12T13:42:33.834Z,0.60
2023-04-12T13:45:01.462Z,0.52
2023-04-12T13:47:28.184Z,0.45
2023-04-12T13:49:54.660Z,0.40
2023-04-12T13:52:21.084Z,0.30
2023-04-12T13:54:47.399Z,0.20
2023-04-12T13:57:13.705Z,0.20
2023-04-12T13:59:40.165Z,0.30
2023-04-12T14:02:06.485Z,0.50
2023-04-12T14:04:32.934Z,0.20
2023-04-12T14:06:59.627Z,0.28
2023-04-12T14:09:27.187Z,0.20
2023-04-12T14:11:57.672Z,0.20
2023-04-12T14:14:25.251Z,0.28
2023-04-12T14:16:53.394Z,0.20
2023-04-12T14:19:20.272Z,0.63
2023-04-12T14:21:49.559Z,0.10
2023-04-12T14:24:16.963Z,0.10
2023-04-12T14:26:43.659Z,0.28
2023-04-12T14:29:10.348Z,0.52
2023-04-12T14:31:37.452Z,0.35
2023-04-12T14:34:04.286Z,0.30
2023-04-12T14:36:31.777Z,0.30
2023-04-12T14:38:58.480Z,0.35
2023-04-12T14:41:25.639Z,0.85
2023-04-12T14:43:52.038Z,1.13
2023-04-12T14:46:18.463Z,0.30
2023-04-12T14:48:44.983Z,0.60
2023-04-12T14:51:11.330Z,0.20
2023-04-12T14:53:37.667Z,0.30
2023-04-12T14:56:04.164Z,0.20
2023-04-12T14:58:30.706Z,0.20
2023-04-12T15:00:58.390Z,0.20
2023-04-12T15:03:26.703Z,0.22
2023-04-12T15:05:53.357Z,0.20
2023-04-12T15:08:19.898Z,0.20
2023-04-12T15:10:46.568Z,0.10
2023-04-12T15:13:12.908Z,0.13
2023-04-12T15:15:39.401Z,0.20
2023-04-12T15:18:05.948Z,0.20
2023-04-12T15:20:32.584Z,0.20
2023-04-12T15:22:58.927Z,0.28
2023-04-12T15:25:25.247Z,0.17
2023-04-12T15:27:51.677Z,0.20
2023-04-12T15:30:18.129Z,0.30
2023-04-12T15:32:44.818Z,0.20
2023-04-12T15:35:25.258Z,0.30
2023-04-12T15:37:53.861Z,0.35
2023-04-12T15:40:21.195Z,0.30
2023-04-12T15:42:47.490Z,0.20
2023-04-12T15:45:14.143Z,0.30
2023-04-12T15:47:40.563Z,0.20
2023-04-12T15:50:08.128Z,0.28
2023-04-12T15:52:34.450Z,0.40
2023-04-12T15:55:00.809Z,0.80
2023-04-12T15:57:27.657Z,0.55
2023-04-12T15:59:55.452Z,0.50
2023-04-12T16:02:22.624Z,0.38
2023-04-12T16:04:49.330Z,0.40
2023-04-12T16:07:15.925Z,0.57
2023-04-12T16:09:42.787Z,0.80
2023-04-12T16:12:09.444Z,2.70
2023-04-12T16:14:36.744Z,1.27
2023-04-12T16:17:03.193Z,1.45
2023-04-12T16:19:29.580Z,0.80
2023-04-12T16:21:55.952Z,1.13
2023-04-12T16:24:22.380Z,0.50
2023-04-12T16:26:48.708Z,0.68
2023-04-12T16:29:15.508Z,0.50
2023-04-12T16:31:42.029Z,0.82
2023-04-12T16:34:08.601Z,1.00
2023-04-12T16:36:34.926Z,1.85
2023-04-12T16:39:03.535Z,1.38
2023-04-12T16:41:29.910Z,1.08
2023-04-12T16:43:59.285Z,0.57
2023-04-12T16:46:26.054Z,0.60
2023-04-12T16:48:52.386Z,0.32
2023-04-12T16:51:18.702Z,0.50
2023-04-12T16:53:45.217Z,1.20
2023-04-12T16:56:11.763Z,0.68
2023-04-12T16:58:38.049Z,0.35
2023-04-12T17:01:04.481Z,0.50
2023-04-12T17:03:30.876Z,0.85
2023-04-12T17:05:57.898Z,0.30
2023-04-12T17:08:24.273Z,0.30
2023-04-12T17:10:51.040Z,0.98
2023-04-12T17:13:19.982Z,0.60
2023-04-12T17:15:48.243Z,0.45
2023-04-12T17:18:15.117Z,2.22
2023-04-12T17:20:41.719Z,0.68
2023-04-12T17:23:09.957Z,2.20
2023-04-12T17:25:36.603Z,0.70
2023-04-12T17:28:03.170Z,0.95
2023-04-12T17:30:29.604Z,1.90
2023-04-12T17:32:56.449Z,0.45
2023-04-12T17:35:23.123Z,1.02
2023-04-12T17:37:49.443Z,0.35
2023-04-12T17:40:16.125Z,0.60
2023-04-12T17:42:43.358Z,1.02
2023-04-12T17:45:12.441Z,2.17
2023-04-12T17:47:39.468Z,0.90
2023-04-12T17:50:07.487Z,0.80
2023-04-12T17:52:33.874Z,0.50
2023-04-12T17:55:00.232Z,0.55
2023-04-12T17:57:27.659Z,0.68
2023-04-12T17:59:53.980Z,0.43
2023-04-12T18:02:20.778Z,0.50
2023-04-12T18:04:48.481Z,0.57
2023-04-12T18:07:16.316Z,0.30
2023-04-12T18:09:44.744Z,0.47
2023-04-12T18:12:11.777Z,1.33
2023-04-12T18:14:40.479Z,0.95
2023-04-12T18:17:07.336Z,1.45
2023-04-12T18:19:34.077Z,0.73
2023-04-12T18:22:00.469Z,2.55
2023-04-12T18:24:26.842Z,1.67
2023-04-12T18:26:53.339Z,2.28
2023-04-12T18:29:20.088Z,2.03
2023-04-12T18:31:46.539Z,1.65
2023-04-12T18:34:13.949Z,2.10
2023-04-12T18:36:42.235Z,1.83
2023-04-12T18:39:08.918Z,1.88
2023-04-12T18:41:35.874Z,1.48
2023-04-12T18:44:02.758Z,0.73
2023-04-12T18:46:29.705Z,1.35
2023-04-12T18:48:56.894Z,1.35
2023-04-12T18:51:23.384Z,1.98
2023-04-12T18:53:50.657Z,1.98
2023-04-12T18:56:23.005Z,0.80
2023-04-12T18:58:55.149Z,1.15
2023-04-12T19:01:22.353Z,1.98
2023-04-12T19:03:49.033Z,0.60
2023-04-12T19:06:15.829Z,0.80
2023-04-12T19:08:43.132Z,0.75
2023-04-12T19:11:09.698Z,0.65
2023-04-12T19:13:37.196Z,0.50
2023-04-12T19:16:07.282Z,0.85
2023-04-12T19:18:34.223Z,1.67
2023-04-12T19:21:00.724Z,1.35
2023-04-12T19:23:27.470Z,1.42
2023-04-12T19:25:54.098Z,1.13
2023-04-12T19:28:20.586Z,0.73
2023-04-12T19:30:46.914Z,0.50
2023-04-12T19:33:14.366Z,0.30
2023-04-12T19:35:42.550Z,0.20
2023-04-12T19:38:09.145Z,0.55
2023-04-12T19:40:35.698Z,0.30
2023-04-12T19:43:02.091Z,0.30
2023-04-12T19:45:28.788Z,2.25
2023-04-12T19:47:56.205Z,1.05
2023-04-12T19:50:23.639Z,0.95
2023-04-12T19:52:50.997Z,0.63
2023-04-12T19:55:17.749Z,0.95
2023-04-12T19:57:44.150Z,0.73
2023-04-12T20:00:20.263Z,0.82
2023-04-12T20:02:50.360Z,0.75
2023-04-12T20:05:17.256Z,0.80
2023-04-12T20:07:44.181Z,0.60
2023-04-12T20:10:10.985Z,1.08
2023-04-12T20:12:40.108Z,0.77
2023-04-12T20:15:11.669Z,1.38
2023-04-12T20:17:41.494Z,1.40
2023-04-12T20:20:10.674Z,0.57
2023-04-12T20:22:37.970Z,1.20
2023-04-12T20:25:05.292Z,1.15
2023-04-12T20:27:32.411Z,2.38
2023-04-12T20:29:58.974Z,1.67
2023-04-12T20:32:25.432Z,0.70
2023-04-12T20:34:52.103Z,1.05
2023-04-12T20:37:18.524Z,0.75
2023-04-12T20:39:45.201Z,1.35
2023-04-12T20:42:12.026Z,0.88
2023-04-12T20:44:38.421Z,0.43
2023-04-12T20:47:04.970Z,0.50
2023-04-12T20:49:31.981Z,0.65
2023-04-12T20:51:59.165Z,1.88
2023-04-12T20:54:26.429Z,0.70
2023-04-12T20:56:54.291Z,0.77
2023-04-12T20:59:23.964Z,0.85
2023-04-12T21:01:51.141Z,0.75
2023-04-12T21:04:17.618Z,0.88
2023-04-12T21:06:45.055Z,1.40
2023-04-12T21:09:11.499Z,0.60
2023-04-12T21:11:37.930Z,0.82
2023-04-12T21:14:04.933Z,1.92
2023-04-12T21:16:31.351Z,0.73
2023-04-12T21:18:59.417Z,0.50
2023-04-12T21:21:27.074Z,1.20
2023-04-12T21:23:53.440Z,0.85
2023-04-12T21:26:20.771Z,0.65
2023-04-12T21:28:47.198Z,0.57
2023-04-12T21:31:13.632Z,0.73
2023-04-12T21:33:40.496Z,0.98
2023-04-12T21:36:07.386Z,1.15
2023-04-12T21:38:34.153Z,1.38
2023-04-12T21:41:11.398Z,1.98
2023-04-12T21:43:41.035Z,0.45
2023-04-12T21:46:10.490Z,0.60
2023-04-12T21:48:36.953Z,0.93
2023-04-12T21:51:03.797Z,0.85
2023-04-12T21:53:30.218Z,1.55
2023-04-12T21:55:56.723Z,1.85
2023-04-12T21:58:23.118Z,0.50
2023-04-12T22:00:49.534Z,1.25
2023-04-12T22:03:16.135Z,0.50
2023-04-12T22:05:51.096Z,0.88
2023-04-12T22:08:23.890Z,0.77
2023-04-12T22:10:50.236Z,0.50
2023-04-12T22:13:18.019Z,1.27
2023-04-12T22:15:44.345Z,0.95
2023-04-12T22:18:10.638Z,1.08
2023-04-12T22:20:37.001Z,2.40
2023-04-12T22:23:03.330Z,0.50
2023-04-12T22:25:29.726Z,1.27
2023-04-12T22:27:57.942Z,1.85
2023-04-12T22:30:25.088Z,0.52
2023-04-12T22:32:52.609Z,0.63
2023-04-12T22:35:20.489Z,0.60
2023-04-12T22:37:46.890Z,1.02
2023-04-12T22:40:13.505Z,0.50
2023-04-12T22:42:46.395Z,0.50
2023-04-12T22:45:17.066Z,0.40
2023-04-12T22:47:44.117Z,2.05
2023-04-12T22:50:10.954Z,2.17
2023-04-12T22:52:40.352Z,1.42
2023-04-12T22:55:07.919Z,1.00
2023-04-12T22:57:36.286Z,0.55
2023-04-12T23:00:04.363Z,0.75
2023-04-12T23:02:31.015Z,0.45
2023-04-12T23:04:57.475Z,0.50
2023-04-12T23:07:23.848Z,0.60
2023-04-12T23:09:51.326Z,0.50
2023-04-12T23:12:17.639Z,0.98
2023-04-12T23:14:44.993Z,2.67
2023-04-12T23:27:42.917Z,1.08
2023-04-12T23:33:30.962Z,0.50
2023-04-12T23:35:58.469Z,0.68
2023-04-12T23:38:32.130Z,0.90
2023-04-12T23:41:02.454Z,2.60
2023-04-12T23:43:29.476Z,0.50
2023-04-12T23:45:56.351Z,0.40
2023-04-12T23:48:23.341Z,1.60
2023-04-12T23:50:50.269Z,0.80
2023-04-12T23:53:17.117Z,0.80
2023-04-12T23:55:44.471Z,0.77
2023-04-12T23:58:11.357Z,1.98
